Time;durP1;ratioP1;P1;durP2;ratioP2;P2;SDS_P1;SDS_P2;PMS_P1;PMS_P2;Temp;Humidity;BMP_temperature;BMP_pressure;BME280_temperature;BME280_humidity;BME280_pressure;Samples;Min_cycle;Max_cycle;Signal;HPM_P1;HPM_P2
2021/05/20 00:00:08;;;;;;;6.00;2.30;;;;;;;9.50;66.95;101702.16;353571;27;1089;-66
2021/05/20 00:00:22;;;;;;;6.35;2.28;;;;;;;9.57;68.41;101702.84;351818;27;47546;-65
2021/05/20 00:00:33;;;;;;;7.00;2.10;;;;;;;9.50;65.47;101695.09;354256;27;24421;-65
2021/05/20 00:00:45;;;;;;;7.72;2.10;;;;;;;9.44;65.40;101697.06;354980;27;1118;-64
2021/05/20 00:00:57;;;;;;;7.07;2.00;;;;;;;9.46;65.54;101698.72;355042;27;1153;-68
2021/05/20 00:01:08;;;;;;;7.45;2.10;;;;;;;9.48;66.01;101702.19;355003;27;1067;-65
2021/05/20 00:01:20;;;;;;;7.18;2.10;;;;;;;9.45;65.21;101698.78;355024;27;1120;-63
2021/05/20 00:01:32;;;;;;;7.82;2.17;;;;;;;9.51;66.29;101701.25;353666;27;1072;-64
2021/05/20 00:01:43;;;;;;;7.85;2.15;;;;;;;9.51;66.67;101702.09;353510;27;1100;-63
2021/05/20 00:01:55;;;;;;;8.32;2.30;;;;;;;9.56;66.20;101695.84;353584;28;1220;-66
2021/05/20 00:02:07;;;;;;;7.38;2.20;;;;;;;9.62;67.41;101699.19;353447;27;1157;-65
2021/05/20 00:02:20;;;;;;;6.53;2.03;;;;;;;9.66;68.80;101702.59;352713;27;1221;-64
2021/05/20 00:02:33;;;;;;;6.20;2.00;;;;;;;9.70;67.83;101690.19;351325;28;24168;-64
2021/05/20 00:02:52;;;;;;;7.88;2.10;;;;;;;9.69;68.83;101705.16;349689;28;70723;-65
2021/05/20 00:03:03;;;;;;;7.38;2.05;;;;;;;9.65;66.58;101704.38;352048;28;1647;-67
2021/05/20 00:03:15;;;;;;;6.95;2.03;;;;;;;9.67;67.46;101704.31;352362;27;1691;-64
2021/05/20 00:03:27;;;;;;;6.70;2.00;;;;;;;9.71;68.26;101707.75;353589;28;1664;-68
2021/05/20 00:03:39;;;;;;;8.55;2.10;;;;;;;9.72;68.68;101709.47;353587;27;1146;-65
2021/05/20 00:03:50;;;;;;;7.55;2.05;;;;;;;9.71;68.75;101697.19;353413;27;1141;-63
2021/05/20 00:04:02;;;;;;;6.68;2.08;;;;;;;9.72;68.41;101694.50;353473;27;1200;-65
2021/05/20 00:04:14;;;;;;;7.72;2.05;;;;;;;9.73;68.34;101700.66;353557;27;1108;-64
2021/05/20 00:04:26;;;;;;;9.56;2.10;;;;;;;9.76;68.77;101697.94;353633;27;1097;-65
2021/05/20 00:04:37;;;;;;;9.25;2.20;;;;;;;9.75;68.43;101693.56;353755;27;1033;-65
2021/05/20 00:04:49;;;;;;;9.73;2.30;;;;;;;9.76;67.96;101700.56;353577;27;1080;-66
2021/05/20 00:05:01;;;;;;;8.58;2.26;;;;;;;9.77;68.85;101697.03;353653;27;2233;-64
2021/05/20 00:05:15;;;;;;;8.10;2.20;;;;;;;9.76;68.22;101703.22;353758;27;2070;-63
2021/05/20 00:05:27;;;;;;;7.45;2.20;;;;;;;9.78;69.68;101694.34;352068;27;47576;-66
2021/05/20 00:05:39;;;;;;;6.78;2.20;;;;;;;9.80;69.09;101696.94;353618;27;1122;-63
2021/05/20 00:05:50;;;;;;;6.86;2.10;;;;;;;9.80;69.28;101697.78;353514;27;1159;-65
2021/05/20 00:06:02;;;;;;;7.15;2.20;;;;;;;9.80;68.98;101707.50;353724;27;1160;-67
2021/05/20 00:06:14;;;;;;;8.10;2.42;;;;;;;9.81;69.42;101696.91;353553;27;1224;-64
2021/05/20 00:06:27;;;;;;;7.78;2.33;;;;;;;9.81;69.26;101699.53;353690;27;1104;-64
2021/05/20 00:06:39;;;;;;;7.05;2.22;;;;;;;9.77;67.71;101703.16;353592;27;1130;-67
2021/05/20 00:06:50;;;;;;;7.43;2.17;;;;;;;9.60;65.01;101706.28;353567;27;1112;-64
2021/05/20 00:07:02;;;;;;;8.50;1.90;;;;;;;9.51;65.24;101702.09;353721;27;1151;-65
2021/05/20 00:07:14;;;;;;;8.50;1.90;;;;;;;9.54;64.98;101702.94;352332;27;1730;-63
2021/05/20 00:07:26;;;;;;;8.05;2.00;;;;;;;9.57;66.54;101708.97;352812;27;1805;-65
2021/05/20 00:07:39;;;;;;;8.15;2.00;;;;;;;9.61;67.75;101713.25;353569;27;1116;-64
2021/05/20 00:07:51;;;;;;;7.45;1.95;;;;;;;9.63;66.61;101700.91;352801;27;22829;-64
2021/05/20 00:08:03;;;;;;;6.43;1.90;;;;;;;9.68;67.71;101701.66;353660;27;1165;-66
2021/05/20 00:08:14;;;;;;;6.72;2.15;;;;;;;9.66;68.16;101692.91;353522;27;1008;-67
2021/05/20 00:08:26;;;;;;;8.38;2.22;;;;;;;9.72;68.52;101704.22;353443;27;1138;-62
2021/05/20 00:08:37;;;;;;;8.65;2.15;;;;;;;9.41;65.20;101707.66;353567;27;1088;-65
2021/05/20 00:08:49;;;;;;;8.27;2.10;;;;;;;9.32;65.28;101708.78;353475;27;1067;-65
2021/05/20 00:09:01;;;;;;;6.85;2.08;;;;;;;9.43;66.39;101708.50;353649;27;1093;-63
2021/05/20 00:09:12;;;;;;;5.07;2.00;;;;;;;9.48;65.71;101703.97;354353;27;1116;-62
2021/05/20 00:09:25;;;;;;;5.97;1.98;;;;;;;9.54;66.80;101711.72;354985;27;1186;-63
2021/05/20 00:09:36;;;;;;;7.25;1.80;;;;;;;9.54;67.42;101702.94;355027;27;1053;-64
2021/05/20 00:09:48;;;;;;;7.57;2.10;;;;;;;9.58;66.67;101707.22;355036;27;1076;-63
2021/05/20 00:09:59;;;;;;;7.22;2.22;;;;;;;9.52;65.22;101700.34;355193;27;1045;-66
2021/05/20 00:10:12;;;;;;;6.28;2.10;;;;;;;9.57;67.19;101701.06;355186;27;1243;-64
2021/05/20 00:10:24;;;;;;;6.57;2.08;;;;;;;9.63;68.02;101700.03;355025;27;1149;-64
2021/05/20 00:10:37;;;;;;;7.60;2.10;;;;;;;9.65;67.93;101704.38;355011;27;1967;-63
2021/05/20 00:10:48;;;;;;;7.70;2.08;;;;;;;9.66;67.43;101707.88;354963;27;2006;-63
2021/05/20 00:11:00;;;;;;;8.07;2.08;;;;;;;9.64;67.62;101707.94;352129;28;1089;-64
2021/05/20 00:11:12;;;;;;;9.93;2.38;;;;;;;9.65;68.37;101698.22;350787;28;1171;-63
2021/05/20 00:11:23;;;;;;;10.55;2.40;;;;;;;9.67;67.73;101706.94;350751;28;1085;-64
2021/05/20 00:11:35;;;;;;;9.30;2.25;;;;;;;9.71;69.30;101694.56;350706;28;1130;-64
2021/05/20 00:11:47;;;;;;;6.40;2.10;;;;;;;9.74;68.48;101697.09;350614;28;1122;-64
2021/05/20 00:11:58;;;;;;;5.97;2.00;;;;;;;9.72;68.83;101694.50;350859;28;1160;-64
2021/05/20 00:12:12;;;;;;;6.25;2.00;;;;;;;9.72;67.94;101693.66;350737;28;1089;-65
2021/05/20 00:12:23;;;;;;;6.18;2.08;;;;;;;9.60;66.16;101698.38;350812;28;1145;-63
2021/05/20 00:12:36;;;;;;;6.07;1.88;;;;;;;9.50;65.37;101699.50;349406;28;1221;-63
2021/05/20 00:12:47;;;;;;;6.45;1.77;;;;;;;9.30;64.43;101702.69;349285;28;1102;-63
2021/05/20 00:12:59;;;;;;;5.22;1.77;;;;;;;9.27;64.26;101698.38;351034;28;1180;-63
2021/05/20 00:13:11;;;;;;;5.30;1.83;;;;;;;9.36;65.26;101696.41;352795;28;1269;-63
2021/05/20 00:13:22;;;;;;;6.00;1.90;;;;;;;9.45;66.93;101704.03;353420;28;1999;-63
2021/05/20 00:13:34;;;;;;;5.07;1.90;;;;;;;9.51;67.84;101703.88;353628;27;1139;-63
2021/05/20 00:13:45;;;;;;;7.20;1.85;;;;;;;9.54;67.68;101701.16;353436;27;1129;-63
2021/05/20 00:13:57;;;;;;;7.70;1.80;;;;;;;9.56;67.50;101699.38;353624;27;1151;-63
2021/05/20 00:14:09;;;;;;;7.72;1.95;;;;;;;9.56;67.37;101698.47;353517;27;1270;-63
2021/05/20 00:14:21;;;;;;;7.13;2.17;;;;;;;9.60;69.02;101701.00;353415;27;1189;-63
2021/05/20 00:14:32;;;;;;;8.93;2.20;;;;;;;9.63;66.90;101706.19;354172;27;1020;-63
2021/05/20 00:14:44;;;;;;;8.90;2.20;;;;;;;9.63;67.26;101697.41;354982;27;1203;-65
2021/05/20 00:14:56;;;;;;;9.23;2.20;;;;;;;9.65;68.13;101699.09;355143;27;1037;-63
2021/05/20 00:15:08;;;;;;;8.07;2.05;;;;;;;9.65;67.20;101701.72;355062;27;1211;-63
2021/05/20 00:15:19;;;;;;;7.56;2.00;;;;;;;9.65;67.59;101704.38;354940;27;1154;-65
2021/05/20 00:15:31;;;;;;;7.78;2.00;;;;;;;9.66;68.23;101702.59;355150;27;1081;-63
2021/05/20 00:15:43;;;;;;;7.28;1.98;;;;;;;9.65;67.85;101704.38;355133;27;1143;-63
2021/05/20 00:15:54;;;;;;;6.93;1.90;;;;;;;9.54;65.94;101701.16;355066;27;1189;-63
2021/05/20 00:16:06;;;;;;;6.82;1.80;;;;;;;9.55;67.15;101695.00;355147;27;1081;-64
2021/05/20 00:16:18;;;;;;;7.28;1.73;;;;;;;9.44;65.34;101700.56;354980;27;1059;-63
2021/05/20 00:16:34;;;;;;;6.85;1.83;;;;;;;9.44;65.87;101704.97;352703;27;71489;-63
2021/05/20 00:16:46;;;;;;;6.15;1.80;;;;;;;9.49;67.06;101698.66;355078;27;1159;-64
2021/05/20 00:16:57;;;;;;;9.00;1.90;;;;;;;9.50;66.24;101702.16;355059;27;1232;-63
2021/05/20 00:17:09;;;;;;;8.82;2.03;;;;;;;9.54;67.81;101706.44;355002;27;1096;-63
2021/05/20 00:17:21;;;;;;;9.82;2.17;;;;;;;9.31;64.88;101697.38;352063;28;1089;-63
2021/05/20 00:17:32;;;;;;;7.60;2.00;;;;;;;9.16;64.35;101705.66;352179;28;1088;-63
2021/05/20 00:17:44;;;;;;;7.05;1.90;;;;;;;9.15;65.45;101701.34;350629;28;1130;-63
2021/05/20 00:17:56;;;;;;;5.88;1.80;;;;;;;9.21;65.55;101703.78;350474;28;1628;-63
2021/05/20 00:18:08;;;;;;;6.80;1.90;;;;;;;9.20;65.71;101694.16;350589;28;1675;-62
2021/05/20 00:18:20;;;;;;;6.53;2.03;;;;;;;9.26;65.86;101703.66;350768;28;1145;-61
2021/05/20 00:18:31;;;;;;;7.18;2.10;;;;;;;9.31;66.86;101707.94;350801;28;1084;-63
2021/05/20 00:18:43;;;;;;;6.90;1.98;;;;;;;9.34;67.49;101696.41;350613;28;1138;-61
2021/05/20 00:18:54;;;;;;;6.78;1.80;;;;;;;9.33;66.35;101692.94;350770;28;1154;-64
2021/05/20 00:19:07;;;;;;;6.55;2.00;;;;;;;9.32;65.86;101695.59;350648;28;1133;-61
2021/05/20 00:19:19;;;;;;;7.10;2.10;;;;;;;9.36;66.76;101699.88;351626;28;1191;-62
2021/05/20 00:19:31;;;;;;;6.84;2.02;;;;;;;9.38;66.77;101700.69;353593;27;1151;-63
2021/05/20 00:19:42;;;;;;;5.72;1.83;;;;;;;9.37;66.27;101703.38;354098;27;1084;-63
2021/05/20 00:19:54;;;;;;;6.13;1.73;;;;;;;9.32;65.75;101700.88;355134;27;1147;-64
2021/05/20 00:20:06;;;;;;;7.07;1.77;;;;;;;9.34;66.00;101696.41;355012;27;1120;-62
2021/05/20 00:20:18;;;;;;;7.45;1.80;;;;;;;9.38;66.52;101699.84;355022;27;1136;-63
2021/05/20 00:20:30;;;;;;;8.05;1.90;;;;;;;9.45;68.06;101699.66;355079;27;1317;-62
2021/05/20 00:20:41;;;;;;;5.65;1.90;;;;;;;9.49;68.26;101703.06;355147;27;1099;-64
2021/05/20 00:20:53;;;;;;;5.32;1.90;;;;;;;9.54;69.57;101702.94;355156;27;1104;-62
2021/05/20 00:21:05;;;;;;;5.25;1.70;;;;;;;9.57;68.92;101701.06;355120;27;1184;-61
2021/05/20 00:21:17;;;;;;;6.05;1.75;;;;;;;9.58;69.80;101702.81;355021;27;1101;-63
2021/05/20 00:21:29;;;;;;;6.22;1.90;;;;;;;9.60;68.95;101700.13;355021;27;1105;-63
2021/05/20 00:21:41;;;;;;;6.15;1.90;;;;;;;9.55;69.41;101691.47;355152;27;1096;-63
2021/05/20 00:21:52;;;;;;;5.28;1.90;;;;;;;9.57;69.81;101695.78;354955;27;1060;-63
2021/05/20 00:22:04;;;;;;;7.25;2.15;;;;;;;9.54;68.08;101695.88;355160;27;1183;-64
2021/05/20 00:22:16;;;;;;;7.82;2.15;;;;;;;9.55;69.30;101702.00;354464;27;1342;-63
2021/05/20 00:22:29;;;;;;;7.82;1.85;;;;;;;9.55;67.87;101699.38;354957;27;1098;-64
2021/05/20 00:22:44;;;;;;;6.28;1.85;;;;;;;9.56;68.83;101694.09;351746;27;94913;-63
2021/05/20 00:22:56;;;;;;;6.15;2.00;;;;;;;9.59;68.79;101699.28;354992;27;1196;-63
2021/05/20 00:23:07;;;;;;;6.32;2.10;;;;;;;9.46;65.86;101705.78;355142;27;1079;-61
2021/05/20 00:23:19;;;;;;;6.38;2.17;;;;;;;9.38;65.62;101699.84;355004;27;1025;-63
2021/05/20 00:23:31;;;;;;;8.15;2.00;;;;;;;9.30;65.38;101700.94;355108;27;1015;-63
2021/05/20 00:23:42;;;;;;;8.10;2.05;;;;;;;9.26;64.95;101701.03;355183;27;1127;-61
2021/05/20 00:23:54;;;;;;;9.23;1.90;;;;;;;9.22;65.51;101702.00;355029;27;1127;-61
2021/05/20 00:24:06;;;;;;;10.27;2.00;;;;;;;9.18;65.01;101701.25;355124;27;997;-62
2021/05/20 00:24:18;;;;;;;12.70;2.20;;;;;;;9.23;66.49;101702.00;354925;27;1095;-61
2021/05/20 00:24:29;;;;;;;10.30;2.10;;;;;;;9.32;67.41;101698.25;355104;27;1010;-62
2021/05/20 00:24:41;;;;;;;8.73;2.15;;;;;;;9.36;68.20;101694.63;355160;27;1134;-61
2021/05/20 00:24:52;;;;;;;7.10;2.08;;;;;;;9.35;66.46;101690.25;355013;27;1135;-62
2021/05/20 00:25:05;;;;;;;7.95;2.13;;;;;;;9.31;65.85;101692.13;355143;27;1096;-62
2021/05/20 00:25:16;;;;;;;6.76;1.82;;;;;;;9.34;65.66;101692.03;354822;27;1208;-62
2021/05/20 00:25:28;;;;;;;5.88;1.73;;;;;;;9.36;67.36;101697.25;355158;27;1179;-62
2021/05/20 00:25:39;;;;;;;6.78;1.65;;;;;;;9.38;66.83;101694.56;355045;27;1060;-62
2021/05/20 00:25:51;;;;;;;6.55;1.80;;;;;;;9.42;67.10;101696.22;354987;27;1347;-62
2021/05/20 00:26:03;;;;;;;6.05;1.98;;;;;;;9.41;67.43;101690.09;355043;27;1129;-62
2021/05/20 00:26:14;;;;;;;5.97;1.83;;;;;;;9.49;68.21;101705.69;353308;27;1129;-61
2021/05/20 00:26:26;;;;;;;8.13;1.92;;;;;;;9.50;69.20;101696.88;353601;27;2047;-62
2021/05/20 00:26:38;;;;;;;9.02;1.98;;;;;;;9.41;66.63;101700.63;353527;28;1141;-63
2021/05/20 00:26:50;;;;;;;9.40;2.00;;;;;;;9.43;67.77;101697.97;353411;27;1192;-61
2021/05/20 00:27:01;;;;;;;9.32;1.90;;;;;;;9.36;66.95;101691.97;353683;27;1065;-61
2021/05/20 00:27:13;;;;;;;9.93;1.90;;;;;;;9.35;66.51;101695.53;353367;27;1121;-61
2021/05/20 00:27:25;;;;;;;8.70;1.80;;;;;;;9.30;65.89;101697.41;353633;27;1138;-62
2021/05/20 00:27:37;;;;;;;8.60;1.80;;;;;;;9.29;65.84;101696.56;353562;27;1341;-63
2021/05/20 00:27:48;;;;;;;7.78;1.75;;;;;;;9.14;65.44;101692.53;353440;27;1091;-62
2021/05/20 00:28:00;;;;;;;6.90;1.90;;;;;;;9.17;65.20;101694.22;353523;28;1152;-62
2021/05/20 00:28:12;;;;;;;6.25;1.80;;;;;;;9.23;65.99;101695.84;353956;27;1564;-62
2021/05/20 00:28:23;;;;;;;5.60;1.80;;;;;;;9.29;67.31;101696.56;355144;27;1207;-62
2021/05/20 00:28:35;;;;;;;6.05;1.83;;;;;;;9.38;68.84;101702.47;353417;27;1572;-62
2021/05/20 00:28:46;;;;;;;7.63;2.00;;;;;;;9.42;69.77;101701.50;353301;27;1839;-62
2021/05/20 00:28:59;;;;;;;8.07;1.90;;;;;;;9.44;69.29;101697.91;353653;27;1040;-61
2021/05/20 00:29:13;;;;;;;9.02;1.88;;;;;;;9.48;69.00;101696.94;353656;27;2047;-64
2021/05/20 00:29:25;;;;;;;8.00;1.85;;;;;;;9.50;69.19;101697.72;352052;28;48157;-62
2021/05/20 00:29:36;;;;;;;6.03;1.80;;;;;;;9.51;69.98;101701.25;353733;27;2027;-62
2021/05/20 00:29:49;;;;;;;5.50;1.75;;;;;;;9.54;69.67;101700.31;353573;27;1114;-62
2021/05/20 00:30:01;;;;;;;5.72;1.77;;;;;;;9.54;69.32;101701.16;353437;27;2417;-62
2021/05/20 00:30:13;;;;;;;5.18;1.90;;;;;;;9.55;69.07;101697.63;353680;27;1039;-62
2021/05/20 00:30:24;;;;;;;4.93;2.05;;;;;;;9.55;69.19;101697.63;353692;27;1104;-62
2021/05/20 00:30:36;;;;;;;6.05;2.10;;;;;;;9.57;69.58;101697.59;353548;28;1279;-62
2021/05/20 00:30:47;;;;;;;7.07;2.20;;;;;;;9.55;70.44;101697.63;352049;28;1379;-62
2021/05/20 00:30:59;;;;;;;7.45;2.10;;;;;;;9.56;69.31;101699.38;352155;28;1123;-61
2021/05/20 00:31:12;;;;;;;6.20;1.95;;;;;;;9.55;70.05;101702.91;352111;28;1220;-61
2021/05/20 00:31:23;;;;;;;6.97;1.90;;;;;;;9.50;67.61;101700.38;352115;28;1199;-62
2021/05/20 00:31:35;;;;;;;6.75;1.80;;;;;;;9.47;67.61;101697.81;352132;28;1173;-62
2021/05/20 00:31:47;;;;;;;8.68;3.42;;;;;;;9.43;66.54;101697.97;350616;28;1088;-63
2021/05/20 00:31:58;;;;;;;9.35;4.45;;;;;;;9.37;66.83;101700.75;350821;28;1163;-62
2021/05/20 00:32:10;;;;;;;9.85;4.50;;;;;;;9.39;67.68;101697.16;350776;28;1085;-62
2021/05/20 00:32:22;;;;;;;9.05;2.97;;;;;;;9.29;65.50;101700.97;350589;28;1096;-62
2021/05/20 00:32:34;;;;;;;7.78;2.30;;;;;;;9.28;66.76;101702.72;350766;28;1102;-62
2021/05/20 00:32:46;;;;;;;9.95;2.30;;;;;;;9.25;66.04;101696.69;351196;28;1243;-62
2021/05/20 00:32:57;;;;;;;11.07;2.28;;;;;;;9.24;66.24;101701.06;352220;28;1140;-63
2021/05/20 00:33:09;;;;;;;10.55;2.15;;;;;;;9.26;65.47;101696.63;352219;28;1092;-63
2021/05/20 00:33:21;;;;;;;7.32;2.05;;;;;;;9.29;67.62;101696.56;351592;28;1371;-62
2021/05/20 00:33:33;;;;;;;7.32;2.15;;;;;;;9.34;68.62;101702.56;352044;28;1428;-62
2021/05/20 00:33:44;;;;;;;8.88;2.25;;;;;;;9.30;66.57;101694.75;352458;27;1208;-62
2021/05/20 00:33:56;;;;;;;8.75;2.15;;;;;;;9.30;66.84;101693.00;353639;27;1200;-62
2021/05/20 00:34:07;;;;;;;7.70;1.98;;;;;;;9.22;65.87;101694.09;353721;28;1196;-61
2021/05/20 00:34:19;;;;;;;6.25;1.85;;;;;;;9.25;67.56;101696.69;353583;27;1160;-62
2021/05/20 00:34:31;;;;;;;7.20;1.77;;;;;;;9.20;66.30;101702.06;353651;28;1151;-61
2021/05/20 00:34:42;;;;;;;9.15;2.00;;;;;;;9.16;66.13;101697.78;353633;28;1119;-61
2021/05/20 00:34:54;;;;;;;10.30;1.90;;;;;;;9.22;67.09;101702.00;353667;27;1449;-61
2021/05/20 00:35:07;;;;;;;9.18;1.90;;;;;;;9.28;68.13;101696.59;353658;27;1253;-62
2021/05/20 00:35:19;;;;;;;8.25;1.95;;;;;;;9.29;67.94;101704.47;353599;27;1064;-62
2021/05/20 00:35:30;;;;;;;8.38;2.30;;;;;;;9.32;68.24;101690.34;353539;27;1064;-61
2021/05/20 00:35:42;;;;;;;8.48;2.20;;;;;;;9.36;68.85;101699.03;353745;28;1053;-62
2021/05/20 00:35:53;;;;;;;8.38;2.15;;;;;;;9.40;69.54;101696.28;353629;27;1047;-61
2021/05/20 00:36:06;;;;;;;6.00;1.77;;;;;;;9.44;69.25;101697.91;353642;28;1282;-62
2021/05/20 00:36:18;;;;;;;6.57;1.70;;;;;;;9.44;70.22;101704.97;353629;27;1170;-62
2021/05/20 00:36:29;;;;;;;7.45;1.83;;;;;;;9.44;70.30;101705.81;353568;27;1092;-62
2021/05/20 00:36:41;;;;;;;7.50;1.98;;;;;;;9.44;69.51;101695.28;353760;27;1155;-62
2021/05/20 00:36:52;;;;;;;8.05;2.10;;;;;;;9.45;70.17;101696.13;353528;28;1133;-62
2021/05/20 00:37:04;;;;;;;8.15;2.10;;;;;;;9.46;69.74;101701.34;353666;27;1090;-62
2021/05/20 00:37:17;;;;;;;7.75;2.00;;;;;;;9.45;68.16;101704.03;353584;27;1171;-61
2021/05/20 00:37:28;;;;;;;6.93;2.00;;;;;;;9.34;67.34;101694.66;353581;28;1241;-62
2021/05/20 00:37:40;;;;;;;6.38;1.90;;;;;;;9.29;67.32;101698.34;353722;28;1192;-62
2021/05/20 00:37:52;;;;;;;5.50;1.73;;;;;;;9.28;67.34;101691.31;353525;28;1149;-62
2021/05/20 00:38:08;;;;;;;5.65;1.70;;;;;;;9.27;68.01;101701.00;353627;27;1129;-61
2021/05/20 00:38:20;;;;;;;6.03;1.83;;;;;;;9.31;68.49;101699.13;351035;27;71964;-62
2021/05/20 00:38:31;;;;;;;6.68;2.00;;;;;;;9.36;69.26;101691.97;353812;28;1041;-61
2021/05/20 00:38:43;;;;;;;7.22;1.83;;;;;;;9.34;68.85;101699.06;353723;27;2012;-62
2021/05/20 00:38:57;;;;;;;6.88;1.67;;;;;;;9.36;68.98;101696.41;353438;28;1205;-61
2021/05/20 00:39:08;;;;;;;6.50;1.83;;;;;;;9.32;67.42;101707.00;353481;27;1730;-62
2021/05/20 00:39:20;;;;;;;6.47;2.00;;;;;;;9.29;67.87;101699.19;354269;27;1657;-62
2021/05/20 00:39:31;;;;;;;6.05;1.90;;;;;;;9.32;68.66;101700.88;353758;28;1071;-62
2021/05/20 00:39:43;;;;;;;7.42;1.80;;;;;;;9.33;68.12;101702.63;353615;28;1147;-61
2021/05/20 00:39:55;;;;;;;8.45;1.90;;;;;;;9.36;68.77;101699.03;352003;28;1215;-62
2021/05/20 00:40:07;;;;;;;7.70;1.92;;;;;;;9.36;68.04;101699.88;352168;28;1136;-62
2021/05/20 00:40:19;;;;;;;7.93;2.22;;;;;;;9.37;69.73;101700.75;351979;28;1192;-62
2021/05/20 00:40:30;;;;;;;8.48;2.30;;;;;;;9.31;67.63;101704.41;352197;28;1277;-62
2021/05/20 00:40:42;;;;;;;7.80;2.17;;;;;;;9.21;66.20;101703.78;352174;28;1145;-62
2021/05/20 00:41:00;;;;;;;5.78;2.00;;;;;;;9.09;66.27;101704.97;352015;28;1219;-62
2021/05/20 00:41:12;;;;;;;7.90;2.00;;;;;;;9.03;65.80;101706.91;349537;28;72021;-63
2021/05/20 00:41:24;;;;;;;7.50;1.98;;;;;;;9.07;67.19;101706.78;352239;28;1128;-63
2021/05/20 00:41:36;;;;;;;6.75;1.90;;;;;;;9.12;67.26;101698.75;352234;28;1140;-63
2021/05/20 00:41:47;;;;;;;6.30;2.00;;;;;;;9.13;68.24;101703.97;351977;28;1052;-62
2021/05/20 00:42:06;;;;;;;6.47;2.00;;;;;;;9.12;67.40;101699.63;353557;28;1331;-63
2021/05/20 00:42:17;;;;;;;5.45;1.83;;;;;;;9.15;68.32;101707.47;351125;28;71895;-62
2021/05/20 00:42:29;;;;;;;4.88;1.80;;;;;;;9.03;66.25;101705.13;352223;28;1186;-62
2021/05/20 00:42:44;;;;;;;5.53;1.73;;;;;;;8.94;66.76;101708.00;352068;28;1172;-63
2021/05/20 00:42:56;;;;;;;5.43;1.67;;;;;;;8.87;65.56;101701.16;348276;28;72029;-61
2021/05/20 00:43:08;;;;;;;5.43;1.65;;;;;;;8.85;67.25;101705.56;350705;28;1129;-62
2021/05/20 00:43:19;;;;;;;6.93;1.83;;;;;;;8.90;67.23;101704.59;350698;28;1081;-62
2021/05/20 00:43:31;;;;;;;6.65;1.83;;;;;;;8.92;66.58;101708.03;350840;28;1044;-62
2021/05/20 00:43:42;;;;;;;6.86;1.84;;;;;;;8.98;67.00;101712.28;350634;28;1067;-63
2021/05/20 00:43:54;;;;;;;6.68;1.83;;;;;;;9.05;67.75;101702.47;350721;28;1134;-63
2021/05/20 00:44:06;;;;;;;6.82;1.98;;;;;;;9.11;68.32;101697.91;350724;28;1222;-62
2021/05/20 00:44:18;;;;;;;6.05;1.90;;;;;;;9.17;68.77;101702.13;350682;28;1208;-62
2021/05/20 00:44:29;;;;;;;5.65;1.90;;;;;;;9.23;70.13;101702.00;351606;28;1201;-62
2021/05/20 00:45:01;;;;;;;6.18;2.08;;;;;;;9.32;69.95;101704.38;352023;28;1976;-62
2021/05/20 00:45:13;;;;;;;9.95;2.38;;;;;;;9.33;70.55;101700.84;351252;28;70635;-64
2021/05/20 00:45:25;;;;;;;8.30;2.30;;;;;;;9.36;70.88;101701.69;353715;28;1137;-61
2021/05/20 00:45:36;;;;;;;7.07;2.20;;;;;;;9.36;70.33;101702.53;353547;27;1078;-64
2021/05/20 00:45:48;;;;;;;6.25;2.00;;;;;;;9.33;70.26;101700.84;353598;28;1068;-63
2021/05/20 00:46:00;;;;;;;5.60;1.80;;;;;;;9.33;68.75;101707.88;353662;28;1151;-62
2021/05/20 00:46:13;;;;;;;5.55;2.00;;;;;;;9.34;69.61;101699.94;353679;28;1089;-62
2021/05/20 00:46:24;;;;;;;7.60;2.28;;;;;;;9.31;69.23;101705.28;351405;28;24289;-63
2021/05/20 00:46:36;;;;;;;8.07;2.17;;;;;;;9.29;69.06;101698.34;352067;28;1084;-64
2021/05/20 00:46:48;;;;;;;7.18;2.00;;;;;;;9.30;69.77;101703.56;351999;28;1077;-62
2021/05/20 00:46:59;;;;;;;8.18;1.80;;;;;;;9.25;68.11;101699.31;352199;28;1076;-62
2021/05/20 00:47:11;;;;;;;7.40;1.92;;;;;;;9.19;67.46;101705.63;352161;28;1077;-62
2021/05/20 00:47:26;;;;;;;6.70;1.88;;;;;;;9.09;66.75;101709.38;352070;28;1073;-62
2021/05/20 00:47:38;;;;;;;7.25;1.75;;;;;;;9.02;67.30;101710.44;349618;28;72450;-64
2021/05/20 00:47:50;;;;;;;7.10;1.75;;;;;;;9.07;68.02;101706.78;352066;28;1018;-63
2021/05/20 00:48:01;;;;;;;5.47;1.80;;;;;;;9.13;69.49;101716.31;352107;28;1138;-62
2021/05/20 00:48:13;;;;;;;5.43;1.70;;;;;;;9.16;68.88;101705.66;352188;28;1141;-62
2021/05/20 00:48:25;;;;;;;5.57;1.60;;;;;;;9.13;67.65;101700.50;353132;28;1235;-63
2021/05/20 00:48:36;;;;;;;6.07;1.73;;;;;;;9.17;68.29;101707.41;353635;28;1219;-63
2021/05/20 00:48:48;;;;;;;5.70;1.77;;;;;;;9.00;66.84;101710.50;353581;28;1079;-62
2021/05/20 00:48:59;;;;;;;6.68;1.60;;;;;;;9.00;67.84;101706.06;353663;28;1132;-67
2021/05/20 00:49:11;;;;;;;6.65;1.55;;;;;;;9.08;68.76;101708.53;353639;28;2143;-61
2021/05/20 00:49:23;;;;;;;6.38;1.65;;;;;;;9.11;69.21;101708.44;353510;28;1109;-62
2021/05/20 00:49:35;;;;;;;6.28;1.80;;;;;;;9.09;67.73;101712.00;353566;28;1095;-66
2021/05/20 00:49:47;;;;;;;5.22;1.60;;;;;;;8.99;67.55;101709.59;351993;28;1722;-63
2021/05/20 00:49:59;;;;;;;5.57;1.58;;;;;;;9.01;67.16;101712.19;353048;28;2060;-62
2021/05/20 00:50:11;;;;;;;6.40;1.73;;;;;;;9.08;68.13;101705.00;352152;28;1133;-67
2021/05/20 00:50:23;;;;;;;5.93;1.73;;;;;;;9.12;67.74;101714.56;352065;28;1183;-61
2021/05/20 00:50:35;;;;;;;5.43;1.60;;;;;;;9.12;68.92;101704.03;352153;28;1114;-63
2021/05/20 00:50:47;;;;;;;5.47;1.63;;;;;;;9.15;68.57;101703.97;352080;28;1149;-62
2021/05/20 00:50:59;;;;;;;5.80;1.80;;;;;;;9.17;69.26;101705.63;352144;28;1075;-64
2021/05/20 00:51:10;;;;;;;6.45;1.85;;;;;;;9.23;70.42;101709.03;352177;28;1055;-62
2021/05/20 00:51:22;;;;;;;7.20;1.80;;;;;;;9.27;71.03;101708.03;351960;28;1056;-61
2021/05/20 00:51:34;;;;;;;6.63;1.80;;;;;;;9.26;70.34;101709.81;352225;28;1024;-62
2021/05/20 00:51:46;;;;;;;5.32;1.80;;;;;;;9.26;70.02;101701.91;352817;28;1072;-61
2021/05/20 00:51:57;;;;;;;4.80;1.75;;;;;;;9.25;70.52;101700.16;353626;28;1145;-64
2021/05/20 00:52:09;;;;;;;6.18;1.88;;;;;;;9.26;70.66;101701.03;352024;28;1084;-62
2021/05/20 00:52:22;;;;;;;6.63;2.00;;;;;;;9.30;70.90;101707.94;351872;28;1212;-63
2021/05/20 00:52:35;;;;;;;6.70;1.90;;;;;;;9.31;71.72;101702.66;352184;28;1263;-62
2021/05/20 00:52:47;;;;;;;5.22;1.80;;;;;;;9.32;71.36;101704.38;352062;28;1906;-62
2021/05/20 00:52:59;;;;;;;5.97;1.80;;;;;;;9.32;70.60;101712.28;352159;28;1125;-62
2021/05/20 00:53:13;;;;;;;6.20;1.80;;;;;;;9.27;68.79;101703.66;352019;28;1147;-61
2021/05/20 00:53:25;;;;;;;5.43;1.75;;;;;;;9.25;68.99;101705.44;352044;28;1115;-61
2021/05/20 00:53:36;;;;;;;5.43;1.70;;;;;;;9.27;70.55;101695.75;352204;28;1065;-63
2021/05/20 00:53:50;;;;;;;5.55;1.80;;;;;;;9.25;68.78;101705.44;352064;28;1088;-62
2021/05/20 00:54:02;;;;;;;4.10;1.70;;;;;;;9.19;67.96;101702.09;351292;28;23910;-61
2021/05/20 00:54:14;;;;;;;5.05;1.80;;;;;;;9.15;68.20;101703.97;351969;28;1088;-63
2021/05/20 00:54:25;;;;;;;6.07;1.80;;;;;;;9.02;66.32;101703.41;352274;28;1085;-61
2021/05/20 00:54:37;;;;;;;7.30;1.90;;;;;;;8.97;67.55;101705.28;352234;28;1104;-62
2021/05/20 00:54:52;;;;;;;7.55;1.90;;;;;;;9.02;67.10;101699.91;352054;28;1139;-62
2021/05/20 00:55:06;;;;;;;6.75;1.63;;;;;;;8.88;66.29;101703.75;350421;28;49395;-62
2021/05/20 00:55:19;;;;;;;6.10;1.80;;;;;;;8.89;67.12;101701.97;351094;28;24078;-62
2021/05/20 00:55:34;;;;;;;6.50;1.95;;;;;;;8.96;67.98;101698.28;351399;28;23992;-61
2021/05/20 00:55:49;;;;;;;6.00;1.90;;;;;;;8.90;67.29;101703.69;350438;28;48181;-62
2021/05/20 00:56:01;;;;;;;4.68;1.85;;;;;;;8.76;66.60;101701.41;351173;28;49293;-62
2021/05/20 00:56:13;;;;;;;5.35;1.70;;;;;;;8.70;67.44;101698.94;353506;28;1212;-62
2021/05/20 00:56:25;;;;;;;6.70;1.80;;;;;;;8.76;69.32;101696.13;353630;28;1196;-62
2021/05/20 00:56:38;;;;;;;6.97;2.00;;;;;;;8.85;70.18;101700.31;353765;28;1118;-62
2021/05/20 00:56:50;;;;;;;6.07;2.00;;;;;;;8.93;69.25;101701.88;352742;28;23928;-62
2021/05/20 00:57:03;;;;;;;6.68;1.90;;;;;;;8.96;68.98;101701.78;353677;27;1285;-61
2021/05/20 00:57:15;;;;;;;5.70;1.70;;;;;;;9.00;69.33;101705.22;354144;27;22597;-61
2021/05/20 00:57:27;;;;;;;5.63;1.80;;;;;;;9.05;68.58;101713.00;353599;28;1236;-62
2021/05/20 00:57:40;;;;;;;5.65;1.67;;;;;;;9.06;68.76;101706.84;352168;28;1076;-61
2021/05/20 00:57:52;;;;;;;7.63;1.80;;;;;;;9.03;68.28;101704.28;351905;28;1172;-62
2021/05/20 00:58:05;;;;;;;6.82;1.80;;;;;;;9.00;69.18;101706.06;352220;28;1151;-62
2021/05/20 00:58:17;;;;;;;7.00;1.80;;;;;;;9.05;69.10;101702.47;351952;28;1221;-62